sensor_id;sensor_type;location;lat;lon;timestamp;P1;durP1;ratioP1;P2;durP2;ratioP2
31596;SDS011;18201;50.978;7.034;2023-03-13T00:00:13;19.02;;;4.88;;
31596;SDS011;18201;50.978;7.034;2023-03-13T00:00:46;23.83;;;6.07;;
31596;SDS011;18201;50.978;7.034;2023-03-13T00:01:19;18.00;;;5.22;;
31596;SDS011;18201;50.978;7.034;2023-03-13T00:01:51;16.13;;;5.97;;
31596;SDS011;18201;50.978;7.034;2023-03-13T00:02:22;22.17;;;5.47;;
31596;SDS011;18201;50.978;7.034;2023-03-13T00:02:54;21.42;;;6.03;;
31596;SDS011;18201;50.978;7.034;2023-03-13T00:03:25;18.27;;;4.82;;
31596;SDS011;18201;50.978;7.034;2023-03-13T00:03:57;20.67;;;5.50;;
31596;SDS011;18201;50.978;7.034;2023-03-13T00:04:29;21.55;;;5.60;;
31596;SDS011;18201;50.978;7.034;2023-03-13T00:04:59;19.73;;;5.18;;
31596;SDS011;18201;50.978;7.034;2023-03-13T00:05:30;19.77;;;5.65;;
31596;SDS011;18201;50.978;7.034;2023-03-13T00:06:05;23.15;;;5.95;;
31596;SDS011;18201;50.978;7.034;2023-03-13T00:06:37;21.25;;;6.03;;
31596;SDS011;18201;50.978;7.034;2023-03-13T00:07:08;21.98;;;5.88;;
31596;SDS011;18201;50.978;7.034;2023-03-13T00:07:40;20.77;;;5.75;;
31596;SDS011;18201;50.978;7.034;2023-03-13T00:08:11;19.33;;;5.03;;
31596;SDS011;18201;50.978;7.034;2023-03-13T00:08:42;21.52;;;5.28;;
31596;SDS011;18201;50.978;7.034;2023-03-13T00:09:15;17.15;;;4.82;;
31596;SDS011;18201;50.978;7.034;2023-03-13T00:09:46;23.15;;;5.20;;
31596;SDS011;18201;50.978;7.034;2023-03-13T00:10:17;25.73;;;6.10;;
31596;SDS011;18201;50.978;7.034;2023-03-13T00:10:49;20.50;;;5.35;;
31596;SDS011;18201;50.978;7.034;2023-03-13T00:11:20;24.98;;;5.70;;
31596;SDS011;18201;50.978;7.034;2023-03-13T00:11:50;24.75;;;6.68;;
31596;SDS011;18201;50.978;7.034;2023-03-13T00:12:22;23.15;;;6.38;;
31596;SDS011;18201;50.978;7.034;2023-03-13T00:12:53;23.50;;;6.30;;
31596;SDS011;18201;50.978;7.034;2023-03-13T00:13:24;25.70;;;5.82;;
31596;SDS011;18201;50.978;7.034;2023-03-13T00:13:55;23.02;;;6.47;;
31596;SDS011;18201;50.978;7.034;2023-03-13T00:14:28;21.88;;;6.93;;
31596;SDS011;18201;50.978;7.034;2023-03-13T00:14:59;18.50;;;6.95;;
31596;SDS011;18201;50.978;7.034;2023-03-13T00:15:30;18.95;;;5.45;;
31596;SDS011;18201;50.978;7.034;2023-03-13T00:16:03;23.38;;;6.50;;
31596;SDS011;18201;50.978;7.034;2023-03-13T00:16:36;17.75;;;5.97;;
31596;SDS011;18201;50.978;7.034;2023-03-13T00:17:08;28.90;;;6.55;;
31596;SDS011;18201;50.978;7.034;2023-03-13T00:17:40;22.92;;;7.00;;
31596;SDS011;18201;50.978;7.034;2023-03-13T00:18:11;19.85;;;5.85;;
31596;SDS011;18201;50.978;7.034;2023-03-13T00:18:45;23.48;;;5.85;;
31596;SDS011;18201;50.978;7.034;2023-03-13T00:19:18;17.55;;;5.35;;
31596;SDS011;18201;50.978;7.034;2023-03-13T00:19:49;27.75;;;6.20;;
31596;SDS011;18201;50.978;7.034;2023-03-13T00:20:20;17.15;;;5.85;;
31596;SDS011;18201;50.978;7.034;2023-03-13T00:20:56;31.77;;;6.43;;
31596;SDS011;18201;50.978;7.034;2023-03-13T00:21:27;23.10;;;5.78;;
31596;SDS011;18201;50.978;7.034;2023-03-13T00:21:59;23.17;;;5.75;;
31596;SDS011;18201;50.978;7.034;2023-03-13T00:22:31;22.08;;;6.78;;
31596;SDS011;18201;50.978;7.034;2023-03-13T00:23:01;18.02;;;5.13;;
31596;SDS011;18201;50.978;7.034;2023-03-13T00:23:33;21.58;;;5.35;;
31596;SDS011;18201;50.978;7.034;2023-03-13T00:24:05;21.75;;;5.22;;
31596;SDS011;18201;50.978;7.034;2023-03-13T00:24:39;25.63;;;6.50;;
31596;SDS011;18201;50.978;7.034;2023-03-13T00:25:10;18.85;;;5.72;;
31596;SDS011;18201;50.978;7.034;2023-03-13T00:25:41;17.65;;;5.28;;
31596;SDS011;18201;50.978;7.034;2023-03-13T00:26:13;25.33;;;5.70;;
31596;SDS011;18201;50.978;7.034;2023-03-13T00:26:45;16.90;;;5.88;;
31596;SDS011;18201;50.978;7.034;2023-03-13T00:27:16;26.48;;;6.63;;
31596;SDS011;18201;50.978;7.034;2023-03-13T00:27:48;23.02;;;5.85;;
31596;SDS011;18201;50.978;7.034;2023-03-13T00:28:19;19.85;;;5.65;;
31596;SDS011;18201;50.978;7.034;2023-03-13T00:28:50;19.08;;;5.28;;
31596;SDS011;18201;50.978;7.034;2023-03-13T00:29:22;21.67;;;5.85;;
31596;SDS011;18201;50.978;7.034;2023-03-13T00:29:53;25.38;;;6.90;;
31596;SDS011;18201;50.978;7.034;2023-03-13T00:30:24;14.18;;;4.72;;
31596;SDS011;18201;50.978;7.034;2023-03-13T00:30:59;22.08;;;6.15;;
31596;SDS011;18201;50.978;7.034;2023-03-13T00:31:32;24.17;;;5.13;;
31596;SDS011;18201;50.978;7.034;2023-03-13T00:32:03;24.98;;;5.03;;
31596;SDS011;18201;50.978;7.034;2023-03-13T00:32:39;17.63;;;5.28;;
31596;SDS011;18201;50.978;7.034;2023-03-13T00:33:10;18.55;;;5.82;;
31596;SDS011;18201;50.978;7.034;2023-03-13T00:33:42;21.05;;;5.53;;
31596;SDS011;18201;50.978;7.034;2023-03-13T00:34:14;16.75;;;4.38;;
31596;SDS011;18201;50.978;7.034;2023-03-13T00:34:45;17.17;;;4.35;;
31596;SDS011;18201;50.978;7.034;2023-03-13T00:35:16;18.00;;;6.40;;
31596;SDS011;18201;50.978;7.034;2023-03-13T00:35:48;20.27;;;5.28;;
31596;SDS011;18201;50.978;7.034;2023-03-13T00:36:19;18.73;;;5.10;;
31596;SDS011;18201;50.978;7.034;2023-03-13T00:36:52;23.45;;;5.47;;
31596;SDS011;18201;50.978;7.034;2023-03-13T00:37:24;17.95;;;4.97;;
31596;SDS011;18201;50.978;7.034;2023-03-13T00:37:55;18.17;;;5.15;;
31596;SDS011;18201;50.978;7.034;2023-03-13T00:38:26;19.63;;;5.05;;
31596;SDS011;18201;50.978;7.034;2023-03-13T00:38:58;21.67;;;5.13;;
31596;SDS011;18201;50.978;7.034;2023-03-13T00:39:30;23.90;;;5.50;;
31596;SDS011;18201;50.978;7.034;2023-03-13T00:40:02;18.35;;;4.90;;
31596;SDS011;18201;50.978;7.034;2023-03-13T00:40:33;17.38;;;5.57;;
31596;SDS011;18201;50.978;7.034;2023-03-13T00:41:06;21.42;;;4.97;;
31596;SDS011;18201;50.978;7.034;2023-03-13T00:41:38;24.00;;;6.18;;
31596;SDS011;18201;50.978;7.034;2023-03-13T00:42:09;21.67;;;5.65;;
31596;SDS011;18201;50.978;7.034;2023-03-13T00:42:39;17.55;;;5.22;;
31596;SDS011;18201;50.978;7.034;2023-03-13T00:43:11;17.45;;;4.75;;
31596;SDS011;18201;50.978;7.034;2023-03-13T00:43:42;23.25;;;5.53;;
31596;SDS011;18201;50.978;7.034;2023-03-13T00:44:14;22.40;;;5.80;;
31596;SDS011;18201;50.978;7.034;2023-03-13T00:44:46;24.35;;;5.60;;
31596;SDS011;18201;50.978;7.034;2023-03-13T00:45:17;17.70;;;5.10;;
31596;SDS011;18201;50.978;7.034;2023-03-13T00:45:48;20.58;;;6.22;;
31596;SDS011;18201;50.978;7.034;2023-03-13T00:46:20;21.17;;;5.13;;
31596;SDS011;18201;50.978;7.034;2023-03-13T00:46:54;19.27;;;5.03;;
31596;SDS011;18201;50.978;7.034;2023-03-13T00:47:25;19.67;;;5.80;;
31596;SDS011;18201;50.978;7.034;2023-03-13T00:47:57;18.52;;;5.45;;
31596;SDS011;18201;50.978;7.034;2023-03-13T00:48:27;14.55;;;4.95;;
31596;SDS011;18201;50.978;7.034;2023-03-13T00:48:59;24.10;;;5.70;;
31596;SDS011;18201;50.978;7.034;2023-03-13T00:49:31;19.73;;;5.25;;
31596;SDS011;18201;50.978;7.034;2023-03-13T00:50:02;23.15;;;6.35;;
31596;SDS011;18201;50.978;7.034;2023-03-13T00:50:33;16.83;;;5.35;;
31596;SDS011;18201;50.978;7.034;2023-03-13T00:51:05;18.30;;;5.05;;
31596;SDS011;18201;50.978;7.034;2023-03-13T00:51:36;21.35;;;5.88;;
31596;SDS011;18201;50.978;7.034;2023-03-13T00:52:07;25.58;;;5.60;;
31596;SDS011;18201;50.978;7.034;2023-03-13T00:52:39;15.90;;;5.57;;
31596;SDS011;18201;50.978;7.034;2023-03-13T00:53:10;17.88;;;4.82;;
31596;SDS011;18201;50.978;7.034;2023-03-13T00:53:41;22.50;;;5.63;;
31596;SDS011;18201;50.978;7.034;2023-03-13T00:54:12;19.98;;;5.15;;
31596;SDS011;18201;50.978;7.034;2023-03-13T00:54:44;20.98;;;4.50;;
31596;SDS011;18201;50.978;7.034;2023-03-13T00:55:15;20.92;;;5.55;;
31596;SDS011;18201;50.978;7.034;2023-03-13T00:55:53;15.50;;;4.93;;
31596;SDS011;18201;50.978;7.034;2023-03-13T00:56:25;25.63;;;5.82;;
31596;SDS011;18201;50.978;7.034;2023-03-13T00:56:58;21.25;;;5.82;;
31596;SDS011;18201;50.978;7.034;2023-03-13T00:57:28;23.83;;;5.85;;
31596;SDS011;18201;50.978;7.034;2023-03-13T00:57:59;21.15;;;5.82;;
31596;SDS011;18201;50.978;7.034;2023-03-13T00:58:32;22.75;;;6.25;;
31596;SDS011;18201;50.978;7.034;2023-03-13T00:59:04;20.00;;;5.45;;
31596;SDS011;18201;50.978;7.034;2023-03-13T00:59:36;23.88;;;6.07;;
31596;SDS011;18201;50.978;7.034;2023-03-13T01:00:07;22.83;;;5.93;;
31596;SDS011;18201;50.978;7.034;2023-03-13T01:00:39;15.70;;;4.80;;
31596;SDS011;18201;50.978;7.034;2023-03-13T01:01:11;21.65;;;5.45;;
31596;SDS011;18201;50.978;7.034;2023-03-13T01:01:44;21.92;;;5.45;;
31596;SDS011;18201;50.978;7.034;2023-03-13T01:02:16;24.83;;;5.32;;
31596;SDS011;18201;50.978;7.034;2023-03-13T01:02:47;23.92;;;5.32;;
31596;SDS011;18201;50.978;7.034;2023-03-13T01:03:19;18.42;;;6.22;;
31596;SDS011;18201;50.978;7.034;2023-03-13T01:03:54;24.50;;;5.72;;
31596;SDS011;18201;50.978;7.034;2023-03-13T01:04:26;21.17;;;6.78;;
31596;SDS011;18201;50.978;7.034;2023-03-13T01:04:58;20.80;;;4.97;;
31596;SDS011;18201;50.978;7.034;2023-03-13T01:05:29;19.90;;;6.78;;
31596;SDS011;18201;50.978;7.034;2023-03-13T01:06:02;23.48;;;5.47;;
31596;SDS011;18201;50.978;7.034;2023-03-13T01:06:35;21.20;;;4.82;;
31596;SDS011;18201;50.978;7.034;2023-03-13T01:07:07;20.77;;;5.57;;
31596;SDS011;18201;50.978;7.034;2023-03-13T01:07:38;29.85;;;6.53;;
31596;SDS011;18201;50.978;7.034;2023-03-13T01:08:09;17.88;;;4.50;;
31596;SDS011;18201;50.978;7.034;2023-03-13T01:08:41;24.20;;;5.05;;
31596;SDS011;18201;50.978;7.034;2023-03-13T01:09:13;30.77;;;7.35;;
31596;SDS011;18201;50.978;7.034;2023-03-13T01:09:45;24.83;;;6.05;;
31596;SDS011;18201;50.978;7.034;2023-03-13T01:10:17;23.63;;;5.82;;
31596;SDS011;18201;50.978;7.034;2023-03-13T01:10:47;21.55;;;5.53;;
31596;SDS011;18201;50.978;7.034;2023-03-13T01:11:19;28.33;;;6.40;;
31596;SDS011;18201;50.978;7.034;2023-03-13T01:11:52;22.08;;;5.25;;
31596;SDS011;18201;50.978;7.034;2023-03-13T01:12:23;21.45;;;5.55;;
31596;SDS011;18201;50.978;7.034;2023-03-13T01:12:54;24.42;;;6.50;;
31596;SDS011;18201;50.978;7.034;2023-03-13T01:13:26;23.05;;;6.57;;
31596;SDS011;18201;50.978;7.034;2023-03-13T01:13:58;27.83;;;5.93;;
31596;SDS011;18201;50.978;7.034;2023-03-13T01:14:30;16.38;;;4.35;;
31596;SDS011;18201;50.978;7.034;2023-03-13T01:15:02;26.50;;;6.25;;
31596;SDS011;18201;50.978;7.034;2023-03-13T01:15:34;19.40;;;5.13;;
31596;SDS011;18201;50.978;7.034;2023-03-13T01:16:06;19.48;;;5.10;;
31596;SDS011;18201;50.978;7.034;2023-03-13T01:16:39;17.20;;;4.85;;
31596;SDS011;18201;50.978;7.034;2023-03-13T01:17:10;20.90;;;5.28;;
31596;SDS011;18201;50.978;7.034;2023-03-13T01:17:43;26.40;;;6.07;;
31596;SDS011;18201;50.978;7.034;2023-03-13T01:18:14;17.88;;;5.05;;
31596;SDS011;18201;50.978;7.034;2023-03-13T01:18:46;25.77;;;5.35;;
31596;SDS011;18201;50.978;7.034;2023-03-13T01:19:19;25.30;;;5.50;;
31596;SDS011;18201;50.978;7.034;2023-03-13T01:19:50;18.38;;;5.00;;
31596;SDS011;18201;50.978;7.034;2023-03-13T01:20:24;25.42;;;5.57;;
31596;SDS011;18201;50.978;7.034;2023-03-13T01:20:56;26.35;;;4.63;;
31596;SDS011;18201;50.978;7.034;2023-03-13T01:21:28;18.83;;;5.25;;
31596;SDS011;18201;50.978;7.034;2023-03-13T01:21:59;17.95;;;5.15;;
31596;SDS011;18201;50.978;7.034;2023-03-13T01:22:31;21.48;;;5.13;;
31596;SDS011;18201;50.978;7.034;2023-03-13T01:23:02;21.92;;;5.80;;
31596;SDS011;18201;50.978;7.034;2023-03-13T01:23:33;22.17;;;5.53;;
31596;SDS011;18201;50.978;7.034;2023-03-13T01:24:04;27.02;;;5.60;;
31596;SDS011;18201;50.978;7.034;2023-03-13T01:24:36;19.85;;;4.93;;
31596;SDS011;18201;50.978;7.034;2023-03-13T01:25:07;25.52;;;5.90;;
31596;SDS011;18201;50.978;7.034;2023-03-13T01:25:38;23.30;;;6.22;;
31596;SDS011;18201;50.978;7.034;2023-03-13T01:26:10;21.15;;;5.20;;
31596;SDS011;18201;50.978;7.034;2023-03-13T01:26:42;25.52;;;5.75;;
31596;SDS011;18201;50.978;7.034;2023-03-13T01:27:14;21.80;;;5.28;;
31596;SDS011;18201;50.978;7.034;2023-03-13T01:27:46;24.65;;;5.22;;
31596;SDS011;18201;50.978;7.034;2023-03-13T01:28:16;27.35;;;5.78;;
31596;SDS011;18201;50.978;7.034;2023-03-13T01:28:47;23.65;;;5.80;;
31596;SDS011;18201;50.978;7.034;2023-03-13T01:29:19;20.90;;;5.45;;
31596;SDS011;18201;50.978;7.034;2023-03-13T01:29:50;24.13;;;6.60;;
31596;SDS011;18201;50.978;7.034;2023-03-13T01:30:21;24.58;;;6.47;;
31596;SDS011;18201;50.978;7.034;2023-03-13T01:30:52;26.30;;;6.32;;
31596;SDS011;18201;50.978;7.034;2023-03-13T01:31:25;21.77;;;6.22;;
31596;SDS011;18201;50.978;7.034;2023-03-13T01:31:56;21.55;;;5.82;;
31596;SDS011;18201;50.978;7.034;2023-03-13T01:32:27;24.10;;;6.38;;
31596;SDS011;18201;50.978;7.034;2023-03-13T01:33:01;21.90;;;5.50;;
31596;SDS011;18201;50.978;7.034;2023-03-13T01:33:31;19.45;;;5.60;;
31596;SDS011;18201;50.978;7.034;2023-03-13T01:34:03;25.02;;;5.88;;
31596;SDS011;18201;50.978;7.034;2023-03-13T01:34:35;24.55;;;6.45;;
31596;SDS011;18201;50.978;7.034;2023-03-13T01:35:06;20.50;;;5.38;;
31596;SDS011;18201;50.978;7.034;2023-03-13T01:35:39;22.23;;;5.50;;
31596;SDS011;18201;50.978;7.034;2023-03-13T01:36:10;24.85;;;5.18;;
31596;SDS011;18201;50.978;7.034;2023-03-13T01:36:41;26.90;;;6.53;;
31596;SDS011;18201;50.978;7.034;2023-03-13T01:37:14;20.35;;;5.93;;
31596;SDS011;18201;50.978;7.034;2023-03-13T01:37:45;25.15;;;5.85;;
31596;SDS011;18201;50.978;7.034;2023-03-13T01:38:16;24.27;;;6.97;;
31596;SDS011;18201;50.978;7.034;2023-03-13T01:38:48;17.13;;;5.03;;
31596;SDS011;18201;50.978;7.034;2023-03-13T01:39:19;17.90;;;4.70;;
31596;SDS011;18201;50.978;7.034;2023-03-13T01:39:50;21.75;;;6.35;;
31596;SDS011;18201;50.978;7.034;2023-03-13T01:40:22;23.40;;;5.53;;
31596;SDS011;18201;50.978;7.034;2023-03-13T01:40:53;24.13;;;6.90;;
31596;SDS011;18201;50.978;7.034;2023-03-13T01:41:24;25.67;;;6.25;;
31596;SDS011;18201;50.978;7.034;2023-03-13T01:41:58;27.48;;;6.20;;
31596;SDS011;18201;50.978;7.034;2023-03-13T01:42:28;23.58;;;5.25;;
31596;SDS011;18201;50.978;7.034;2023-03-13T01:42:59;25.75;;;5.38;;
31596;SDS011;18201;50.978;7.034;2023-03-13T01:43:42;16.45;;;5.40;;
31596;SDS011;18201;50.978;7.034;2023-03-13T01:44:18;17.42;;;5.20;;
31596;SDS011;18201;50.978;7.034;2023-03-13T01:44:53;18.23;;;5.05;;
31596;SDS011;18201;50.978;7.034;2023-03-13T01:46:28;29.17;;;6.30;;
31596;SDS011;18201;50.978;7.034;2023-03-13T01:47:00;25.67;;;5.43;;
31596;SDS011;18201;50.978;7.034;2023-03-13T01:47:31;22.40;;;4.72;;
31596;SDS011;18201;50.978;7.034;2023-03-13T01:48:04;20.90;;;5.47;;
31596;SDS011;18201;50.978;7.034;2023-03-13T01:48:36;26.48;;;7.10;;
31596;SDS011;18201;50.978;7.034;2023-03-13T01:49:14;29.77;;;6.53;;
31596;SDS011;18201;50.978;7.034;2023-03-13T01:49:48;29.38;;;5.72;;
31596;SDS011;18201;50.978;7.034;2023-03-13T01:50:22;28.17;;;5.78;;
31596;SDS011;18201;50.978;7.034;2023-03-13T01:50:53;25.92;;;5.75;;
31596;SDS011;18201;50.978;7.034;2023-03-13T01:51:26;24.17;;;5.68;;
31596;SDS011;18201;50.978;7.034;2023-03-13T01:52:00;24.63;;;5.20;;
31596;SDS011;18201;50.978;7.034;2023-03-13T01:52:33;21.13;;;5.88;;
31596;SDS011;18201;50.978;7.034;2023-03-13T01:53:04;22.63;;;6.03;;
31596;SDS011;18201;50.978;7.034;2023-03-13T01:53:36;25.17;;;5.72;;
31596;SDS011;18201;50.978;7.034;2023-03-13T01:54:12;30.15;;;6.35;;
31596;SDS011;18201;50.978;7.034;2023-03-13T01:54:46;20.27;;;6.47;;
31596;SDS011;18201;50.978;7.034;2023-03-13T01:55:20;25.13;;;5.95;;
31596;SDS011;18201;50.978;7.034;2023-03-13T01:55:51;28.25;;;5.47;;
31596;SDS011;18201;50.978;7.034;2023-03-13T01:56:26;21.73;;;5.20;;
31596;SDS011;18201;50.978;7.034;2023-03-13T01:57:02;29.40;;;6.10;;
31596;SDS011;18201;50.978;7.034;2023-03-13T01:57:37;23.77;;;5.53;;
31596;SDS011;18201;50.978;7.034;2023-03-13T01:58:11;26.50;;;5.80;;
31596;SDS011;18201;50.978;7.034;2023-03-13T01:58:42;24.90;;;6.40;;
31596;SDS011;18201;50.978;7.034;2023-03-13T01:59:15;22.33;;;5.00;;
31596;SDS011;18201;50.978;7.034;2023-03-13T01:59:50;22.92;;;5.75;;
31596;SDS011;18201;50.978;7.034;2023-03-13T02:00:23;26.48;;;6.75;;
31596;SDS011;18201;50.978;7.034;2023-03-13T02:01:00;22.45;;;5.28;;
31596;SDS011;18201;50.978;7.034;2023-03-13T02:01:31;22.40;;;5.45;;
31596;SDS011;18201;50.978;7.034;2023-03-13T02:02:03;24.45;;;6.07;;
31596;SDS011;18201;50.978;7.034;2023-03-13T02:02:35;18.00;;;5.13;;
31596;SDS011;18201;50.978;7.034;2023-03-13T02:03:13;19.00;;;5.47;;
31596;SDS011;18201;50.978;7.034;2023-03-13T02:03:47;18.33;;;5.32;;
31596;SDS011;18201;50.978;7.034;2023-03-13T02:04:18;24.67;;;5.47;;
31596;SDS011;18201;50.978;7.034;2023-03-13T02:04:55;23.13;;;5.95;;
31596;SDS011;18201;50.978;7.034;2023-03-13T02:05:29;24.75;;;5.40;;
31596;SDS011;18201;50.978;7.034;2023-03-13T02:06:01;22.90;;;5.78;;
31596;SDS011;18201;50.978;7.034;2023-03-13T02:06:36;22.10;;;4.70;;
31596;SDS011;18201;50.978;7.034;2023-03-13T02:07:11;20.05;;;5.95;;
31596;SDS011;18201;50.978;7.034;2023-03-13T02:07:46;16.95;;;5.03;;
31596;SDS011;18201;50.978;7.034;2023-03-13T02:08:21;19.38;;;5.55;;
31596;SDS011;18201;50.978;7.034;2023-03-13T02:08:54;19.02;;;5.20;;
31596;SDS011;18201;50.978;7.034;2023-03-13T02:09:29;19.63;;;4.80;;
31596;SDS011;18201;50.978;7.034;2023-03-13T02:10:02;24.15;;;5.25;;
31596;SDS011;18201;50.978;7.034;2023-03-13T02:10:36;21.10;;;5.80;;
31596;SDS011;18201;50.978;7.034;2023-03-13T02:11:15;23.40;;;5.45;;
31596;SDS011;18201;50.978;7.034;2023-03-13T02:11:56;14.48;;;5.10;;
31596;SDS011;18201;50.978;7.034;2023-03-13T02:12:31;22.85;;;4.90;;
31596;SDS011;18201;50.978;7.034;2023-03-13T02:13:04;23.88;;;5.25;;
31596;SDS011;18201;50.978;7.034;2023-03-13T02:13:36;18.17;;;4.47;;
31596;SDS011;18201;50.978;7.034;2023-03-13T02:14:07;15.32;;;4.72;;
31596;SDS011;18201;50.978;7.034;2023-03-13T02:14:39;17.90;;;4.50;;
31596;SDS011;18201;50.978;7.034;2023-03-13T02:15:14;14.35;;;4.00;;
31596;SDS011;18201;50.978;7.034;2023-03-13T02:15:47;15.65;;;4.63;;
31596;SDS011;18201;50.978;7.034;2023-03-13T02:16:19;16.15;;;4.40;;
31596;SDS011;18201;50.978;7.034;2023-03-13T02:16:52;20.88;;;4.75;;
31596;SDS011;18201;50.978;7.034;2023-03-13T02:17:24;20.55;;;4.50;;
31596;SDS011;18201;50.978;7.034;2023-03-13T02:17:56;18.52;;;4.32;;
31596;SDS011;18201;50.978;7.034;2023-03-13T02:18:28;16.95;;;4.55;;
31596;SDS011;18201;50.978;7.034;2023-03-13T02:19:01;19.65;;;4.70;;
31596;SDS011;18201;50.978;7.034;2023-03-13T02:19:38;15.63;;;4.63;;
31596;SDS011;18201;50.978;7.034;2023-03-13T02:20:13;21.17;;;5.03;;
31596;SDS011;18201;50.978;7.034;2023-03-13T02:20:45;19.50;;;4.53;;
31596;SDS011;18201;50.978;7.034;2023-03-13T02:21:22;14.20;;;4.25;;
31596;SDS011;18201;50.978;7.034;2023-03-13T02:22:03;15.75;;;4.05;;
31596;SDS011;18201;50.978;7.034;2023-03-13T02:22:42;17.40;;;4.72;;
31596;SDS011;18201;50.978;7.034;2023-03-13T02:23:18;18.77;;;4.05;;
31596;SDS011;18201;50.978;7.034;2023-03-13T02:23:56;15.48;;;4.00;;
31596;SDS011;18201;50.978;7.034;2023-03-13T02:24:33;17.33;;;3.78;;
31596;SDS011;18201;50.978;7.034;2023-03-13T02:25:09;15.27;;;3.58;;
31596;SDS011;18201;50.978;7.034;2023-03-13T02:25:49;13.15;;;4.25;;
31596;SDS011;18201;50.978;7.034;2023-03-13T02:26:21;10.52;;;3.50;;
31596;SDS011;18201;50.978;7.034;2023-03-13T02:26:52;17.45;;;4.07;;
31596;SDS011;18201;50.978;7.034;2023-03-13T02:27:24;13.13;;;4.25;;
31596;SDS011;18201;50.978;7.034;2023-03-13T02:27:56;17.75;;;5.57;;
31596;SDS011;18201;50.978;7.034;2023-03-13T02:28:30;16.58;;;4.25;;
31596;SDS011;18201;50.978;7.034;2023-03-13T02:29:04;15.73;;;4.07;;
31596;SDS011;18201;50.978;7.034;2023-03-13T02:29:35;18.80;;;4.03;;
31596;SDS011;18201;50.978;7.034;2023-03-13T02:30:06;14.68;;;3.88;;
31596;SDS011;18201;50.978;7.034;2023-03-13T02:30:40;11.38;;;3.83;;
31596;SDS011;18201;50.978;7.034;2023-03-13T02:31:12;13.75;;;4.57;;
31596;SDS011;18201;50.978;7.034;2023-03-13T02:31:44;11.95;;;3.97;;
31596;SDS011;18201;50.978;7.034;2023-03-13T02:32:17;18.25;;;3.80;;
31596;SDS011;18201;50.978;7.034;2023-03-13T02:32:48;15.90;;;3.45;;
31596;SDS011;18201;50.978;7.034;2023-03-13T02:33:20;14.35;;;3.83;;
31596;SDS011;18201;50.978;7.034;2023-03-13T02:33:56;14.40;;;3.55;;
31596;SDS011;18201;50.978;7.034;2023-03-13T02:34:31;16.50;;;4.43;;
31596;SDS011;18201;50.978;7.034;2023-03-13T02:35:06;13.05;;;3.30;;
31596;SDS011;18201;50.978;7.034;2023-03-13T02:35:39;16.15;;;3.83;;
31596;SDS011;18201;50.978;7.034;2023-03-13T02:36:12;17.33;;;3.85;;
31596;SDS011;18201;50.978;7.034;2023-03-13T02:36:46;15.43;;;3.97;;
31596;SDS011;18201;50.978;7.034;2023-03-13T02:37:18;13.45;;;3.67;;
31596;SDS011;18201;50.978;7.034;2023-03-13T02:37:50;15.98;;;4.00;;
31596;SDS011;18201;50.978;7.034;2023-03-13T02:38:26;16.70;;;4.50;;
31596;SDS011;18201;50.978;7.034;2023-03-13T02:39:01;22.13;;;4.28;;
31596;SDS011;18201;50.978;7.034;2023-03-13T02:39:35;17.48;;;4.47;;
31596;SDS011;18201;50.978;7.034;2023-03-13T02:40:09;15.93;;;4.03;;
31596;SDS011;18201;50.978;7.034;2023-03-13T02:40:44;12.77;;;3.40;;
31596;SDS011;18201;50.978;7.034;2023-03-13T02:41:18;12.52;;;3.70;;
31596;SDS011;18201;50.978;7.034;2023-03-13T02:41:50;15.70;;;3.78;;
31596;SDS011;18201;50.978;7.034;2023-03-13T02:42:24;10.13;;;3.58;;
31596;SDS011;18201;50.978;7.034;2023-03-13T02:42:57;18.38;;;4.03;;
31596;SDS011;18201;50.978;7.034;2023-03-13T02:43:30;17.20;;;4.38;;
31596;SDS011;18201;50.978;7.034;2023-03-13T02:44:03;12.50;;;3.25;;
31596;SDS011;18201;50.978;7.034;2023-03-13T02:44:36;16.30;;;4.07;;
31596;SDS011;18201;50.978;7.034;2023-03-13T02:45:08;14.73;;;4.18;;
31596;SDS011;18201;50.978;7.034;2023-03-13T02:46:44;18.33;;;4.55;;
31596;SDS011;18201;50.978;7.034;2023-03-13T02:47:16;14.07;;;4.18;;
31596;SDS011;18201;50.978;7.034;2023-03-13T02:47:49;20.30;;;3.80;;
31596;SDS011;18201;50.978;7.034;2023-03-13T02:48:27;18.10;;;4.18;;
31596;SDS011;18201;50.978;7.034;2023-03-13T02:49:09;17.92;;;4.20;;
31596;SDS011;18201;50.978;7.034;2023-03-13T02:49:50;17.35;;;4.10;;
31596;SDS011;18201;50.978;7.034;2023-03-13T02:50:21;10.00;;;3.00;;
31596;SDS011;18201;50.978;7.034;2023-03-13T02:50:53;21.00;;;5.35;;
31596;SDS011;18201;50.978;7.034;2023-03-13T02:51:26;17.90;;;4.75;;
31596;SDS011;18201;50.978;7.034;2023-03-13T02:52:03;18.25;;;4.38;;
31596;SDS011;18201;50.978;7.034;2023-03-13T02:52:39;16.60;;;4.32;;
31596;SDS011;18201;50.978;7.034;2023-03-13T02:53:13;16.58;;;4.10;;
31596;SDS011;18201;50.978;7.034;2023-03-13T02:53:44;16.50;;;4.22;;
31596;SDS011;18201;50.978;7.034;2023-03-13T02:54:18;17.88;;;4.68;;
31596;SDS011;18201;50.978;7.034;2023-03-13T02:54:52;15.07;;;4.38;;
31596;SDS011;18201;50.978;7.034;2023-03-13T02:55:28;17.55;;;4.00;;
31596;SDS011;18201;50.978;7.034;2023-03-13T02:56:01;14.63;;;4.35;;
31596;SDS011;18201;50.978;7.034;2023-03-13T02:56:35;16.73;;;4.25;;
31596;SDS011;18201;50.978;7.034;2023-03-13T02:57:10;18.67;;;4.72;;
31596;SDS011;18201;50.978;7.034;2023-03-13T02:57:41;16.40;;;4.53;;
31596;SDS011;18201;50.978;7.034;2023-03-13T02:58:12;13.13;;;4.07;;
31596;SDS011;18201;50.978;7.034;2023-03-13T02:58:44;16.17;;;3.80;;
31596;SDS011;18201;50.978;7.034;2023-03-13T02:59:15;18.58;;;3.95;;
31596;SDS011;18201;50.978;7.034;2023-03-13T02:59:45;16.55;;;4.32;;
31596;SDS011;18201;50.978;7.034;2023-03-13T03:00:18;17.48;;;4.45;;
31596;SDS011;18201;50.978;7.034;2023-03-13T03:00:49;17.30;;;3.92;;
31596;SDS011;18201;50.978;7.034;2023-03-13T03:01:21;16.25;;;3.70;;
31596;SDS011;18201;50.978;7.034;2023-03-13T03:01:53;16.20;;;4.50;;
31596;SDS011;18201;50.978;7.034;2023-03-13T03:02:24;18.45;;;4.28;;
31596;SDS011;18201;50.978;7.034;2023-03-13T03:02:54;13.77;;;2.92;;
31596;SDS011;18201;50.978;7.034;2023-03-13T03:03:26;12.93;;;4.30;;
31596;SDS011;18201;50.978;7.034;2023-03-13T03:03:57;20.10;;;5.05;;
31596;SDS011;18201;50.978;7.034;2023-03-13T03:04:28;19.23;;;4.40;;
31596;SDS011;18201;50.978;7.034;2023-03-13T03:05:00;15.40;;;4.10;;
31596;SDS011;18201;50.978;7.034;2023-03-13T03:05:31;17.17;;;4.15;;
31596;SDS011;18201;50.978;7.034;2023-03-13T03:06:03;10.18;;;3.60;;
31596;SDS011;18201;50.978;7.034;2023-03-13T03:06:36;19.65;;;4.07;;
31596;SDS011;18201;50.978;7.034;2023-03-13T03:07:06;16.35;;;4.03;;
31596;SDS011;18201;50.978;7.034;2023-03-13T03:07:37;15.23;;;4.28;;
31596;SDS011;18201;50.978;7.034;2023-03-13T03:08:09;13.77;;;4.03;;
31596;SDS011;18201;50.978;7.034;2023-03-13T03:08:40;15.32;;;3.58;;
31596;SDS011;18201;50.978;7.034;2023-03-13T03:09:12;18.98;;;4.75;;
31596;SDS011;18201;50.978;7.034;2023-03-13T03:09:44;12.85;;;3.30;;
31596;SDS011;18201;50.978;7.034;2023-03-13T03:10:16;16.33;;;3.63;;
31596;SDS011;18201;50.978;7.034;2023-03-13T03:10:47;15.05;;;4.78;;
31596;SDS011;18201;50.978;7.034;2023-03-13T03:11:18;12.20;;;3.83;;
31596;SDS011;18201;50.978;7.034;2023-03-13T03:11:51;10.05;;;3.30;;
31596;SDS011;18201;50.978;7.034;2023-03-13T03:12:22;14.25;;;3.78;;
31596;SDS011;18201;50.978;7.034;2023-03-13T03:12:53;18.10;;;3.88;;
31596;SDS011;18201;50.978;7.034;2023-03-13T03:13:25;14.02;;;3.47;;
31596;SDS011;18201;50.978;7.034;2023-03-13T03:13:56;15.52;;;3.55;;
31596;SDS011;18201;50.978;7.034;2023-03-13T03:14:27;15.80;;;3.97;;
31596;SDS011;18201;50.978;7.034;2023-03-13T03:14:59;17.38;;;4.32;;